| Date | Time | Temp. (oF) | Dew Point (oF) | Rel. Hum. (%) | Press. (in.) | Wind Dir. | Wind Speed (mph) | Hourly Rainfall (in.) |
|
|---|---|---|---|---|---|---|---|---|---|
| 1 | 07/02 | 00:00 | 74 | 68 | 84 | 29.90 | ENE | 0 | 0.00 |
| 2 | 07/01 | 23:00 | 75 | 69 | 82 | 29.92 | NE | 0 | 0.00 |
| 3 | 07/01 | 22:00 | 79 | 66 | 66 | 29.92 | S | 0 | 0.00 |
| 4 | 07/01 | 21:00 | 84 | 63 | 51 | 29.88 | NNW | 0 | 0.00 |
| 5 | 07/01 | 20:00 | 88 | 63 | 45 | 29.81 | N | 3 | 0.00 |
| 6 | 07/01 | 19:00 | 92 | 65 | 42 | 29.80 | N | 7 | 0.00 |
| 7 | 07/01 | 18:00 | 92 | 69 | 48 | 29.80 | WNW | 3 | 0.00 |
| 8 | 07/01 | 17:00 | 94 | 71 | 48 | 29.82 | SW | 3 | 0.00 |
| 9 | 07/01 | 16:00 | 94 | 69 | 46 | 29.85 | NNW | 2 | 0.00 |
| 10 | 07/01 | 15:00 | 94 | 71 | 48 | 29.86 | WNW | 4 | 0.00 |
| 11 | 07/01 | 14:00 | 93 | 72 | 51 | 29.87 | SW | 6 | 0.00 |
| 12 | 07/01 | 13:00 | 92 | 73 | 55 | 29.88 | WSW | 5 | 0.00 |
| 13 | 07/01 | 12:00 | 90 | 72 | 57 | 29.89 | SSW | 5 | 0.00 |
| 14 | 07/01 | 11:00 | 88 | 73 | 62 | 29.90 | WSW | 6 | 0.00 |
| 15 | 07/01 | 10:00 | 85 | 75 | 74 | 29.90 | WSW | 3 | 0.00 |
| 16 | 07/01 | 09:00 | 81 | 75 | 83 | 29.90 | S | 0 | 0.00 |
| 17 | 07/01 | 08:00 | 73 | 72 | 100 | 29.90 | SSE | 0 | 0.00 |
| 18 | 07/01 | 07:00 | 69 | 68 | 100 | 29.89 | SSE | 0 | 0.00 |
| 19 | 07/01 | 06:00 | 67 | 67 | 100 | 29.87 | S | 0 | 0.00 |
| 20 | 07/01 | 05:00 | 68 | 68 | 100 | 29.86 | S | 0 | 0.00 |
| 21 | 07/01 | 04:00 | 69 | 68 | 100 | 29.85 | S | 0 | 0.00 |
| 22 | 07/01 | 03:00 | 68 | 68 | 100 | 29.85 | SSW | 0 | 0.00 |
| 23 | 07/01 | 02:00 | 69 | 68 | 100 | 29.85 | WSW | 0 | 0.00 |
| 24 | 07/01 | 01:00 | 70 | 69 | 100 | 29.86 | SW | 0 | 0.00 |